createdAt,value
2018-03-12T00:00:53.510Z,98231.34
2018-03-12T00:03:21.061Z,98236.02
2018-03-12T00:05:48.514Z,98232.33
2018-03-12T00:08:15.966Z,98230.24
2018-03-12T00:10:43.433Z,98233.33
2018-03-12T00:13:10.881Z,98230.14
2018-03-12T00:15:38.363Z,98241.09
2018-03-12T00:18:05.809Z,98229.52
2018-03-12T00:20:33.249Z,98233.88
2018-03-12T00:23:00.732Z,98242.66
2018-03-12T00:25:28.174Z,98244.22
2018-03-12T00:27:55.839Z,98243.98
2018-03-12T00:30:23.278Z,98244.98
2018-03-12T00:32:50.726Z,98242.22
2018-03-12T00:35:18.205Z,98246.67
2018-03-12T00:37:45.654Z,98243.91
2018-03-12T00:40:13.281Z,98245.09
2018-03-12T00:42:40.737Z,98240.83
2018-03-12T00:45:08.181Z,98243.48
2018-03-12T00:47:35.667Z,98247.16
2018-03-12T00:50:03.112Z,98247.30
2018-03-12T00:52:30.854Z,98252.76
2018-03-12T00:54:58.301Z,98250.80
2018-03-12T00:57:25.769Z,98243.85
2018-03-12T00:59:53.235Z,98242.20
2018-03-12T01:02:20.705Z,98239.27
2018-03-12T01:04:48.209Z,98238.03
2018-03-12T01:07:15.683Z,98230.64
2018-03-12T01:09:43.133Z,98233.16
2018-03-12T01:12:10.617Z,98231.31
2018-03-12T01:14:38.069Z,98228.70
2018-03-12T01:17:05.685Z,98225.58
2018-03-12T01:19:33.147Z,98225.25
2018-03-12T01:22:00.593Z,98220.95
2018-03-12T01:24:28.072Z,98215.02
2018-03-12T01:26:55.553Z,98212.18
2018-03-12T01:29:23.511Z,98213.94
2018-03-12T01:31:50.958Z,98201.95
2018-03-12T01:34:18.404Z,98212.42
2018-03-12T01:36:45.873Z,98208.43
2018-03-12T01:39:13.321Z,98212.13
2018-03-12T01:41:41.141Z,98212.66
2018-03-12T01:44:08.606Z,98215.64
2018-03-12T01:46:36.078Z,98213.31
2018-03-12T01:49:03.557Z,98208.09
2018-03-12T01:51:31.011Z,98212.84
2018-03-12T01:53:58.709Z,98209.37
2018-03-12T01:56:26.161Z,98206.55
2018-03-12T01:58:53.638Z,98205.30
2018-03-12T02:01:21.109Z,98201.05
2018-03-12T02:03:48.557Z,98202.98
2018-03-12T02:06:16.041Z,98198.25
2018-03-12T02:08:43.517Z,98198.72
2018-03-12T02:11:10.972Z,98196.48
2018-03-12T02:13:38.446Z,98192.38
2018-03-12T02:16:05.893Z,98188.13
2018-03-12T02:18:33.736Z,98180.77
2018-03-12T02:21:01.196Z,98182.15
2018-03-12T02:23:28.657Z,98178.65
2018-03-12T02:25:56.133Z,98176.65
2018-03-12T02:28:23.610Z,98183.67
2018-03-12T02:30:51.133Z,98183.66
2018-03-12T02:33:18.598Z,98179.83
2018-03-12T02:35:46.050Z,98176.03
2018-03-12T02:38:13.517Z,98182.28
2018-03-12T02:40:40.975Z,98181.86
2018-03-12T02:43:08.466Z,98180.49
2018-03-12T02:45:35.925Z,98178.41
2018-03-12T02:48:03.374Z,98183.23
2018-03-12T02:50:30.845Z,98185.80
2018-03-12T02:52:58.300Z,98176.41
2018-03-12T02:55:25.798Z,98178.83
2018-03-12T02:57:53.249Z,98178.67
2018-03-12T03:00:20.712Z,98177.55
2018-03-12T03:02:48.187Z,98177.26
2018-03-12T03:05:15.645Z,98185.33
2018-03-12T03:07:43.316Z,98172.80
2018-03-12T03:10:10.762Z,98172.91
2018-03-12T03:12:38.212Z,98173.52
2018-03-12T03:15:05.681Z,98170.11
2018-03-12T03:17:33.133Z,98168.25
2018-03-12T03:20:00.617Z,98168.82
2018-03-12T03:22:28.076Z,98171.05
2018-03-12T03:24:55.555Z,98167.97
2018-03-12T03:27:23.030Z,98158.41
2018-03-12T03:29:50.497Z,98161.60
2018-03-12T03:32:17.996Z,98155.92
2018-03-12T03:34:45.441Z,98160.47
2018-03-12T03:37:12.902Z,98161.30
2018-03-12T03:39:40.394Z,98157.98
2018-03-12T03:42:07.842Z,98151.51
2018-03-12T03:44:35.329Z,98158.70
2018-03-12T03:47:02.781Z,98156.11
2018-03-12T03:49:30.229Z,98166.19
2018-03-12T03:51:57.701Z,98165.14
2018-03-12T03:54:25.145Z,98160.08
2018-03-12T03:56:52.669Z,98165.80
2018-03-12T03:59:20.120Z,98161.16
2018-03-12T04:01:47.570Z,98157.09
2018-03-12T04:04:15.052Z,98158.61
2018-03-12T04:06:42.498Z,98163.25
2018-03-12T04:09:10.145Z,98158.47
2018-03-12T04:11:37.599Z,98170.81
2018-03-12T04:14:05.054Z,98161.16
2018-03-12T04:16:32.521Z,98165.67
2018-03-12T04:18:59.984Z,98161.83
2018-03-12T04:21:27.466Z,98169.21
2018-03-12T04:23:54.918Z,98170.92
2018-03-12T04:26:22.378Z,98168.69
2018-03-12T04:28:49.860Z,98164.48
2018-03-12T04:31:17.310Z,98170.26
2018-03-12T04:33:45.057Z,98171.91
2018-03-12T04:36:12.526Z,98177.97
2018-03-12T04:38:39.993Z,98172.30
2018-03-12T04:41:07.481Z,98175.89
2018-03-12T04:43:34.933Z,98180.68
2018-03-12T04:46:02.713Z,98183.34
2018-03-12T04:48:30.169Z,98184.47
2018-03-12T04:50:57.621Z,98184.52
2018-03-12T04:53:25.105Z,98183.76
2018-03-12T04:55:52.573Z,98182.77
2018-03-12T04:58:20.173Z,98175.56
2018-03-12T05:00:47.621Z,98176.52
2018-03-12T05:03:15.069Z,98176.84
2018-03-12T05:05:42.545Z,98178.91
2018-03-12T05:08:09.997Z,98171.58
2018-03-12T05:10:37.473Z,98174.32
2018-03-12T05:13:04.926Z,98172.99
2018-03-12T05:15:32.383Z,98178.39
2018-03-12T05:17:59.860Z,98181.25
2018-03-12T05:20:27.314Z,98175.93
2018-03-12T05:22:54.906Z,98177.83
2018-03-12T05:25:22.349Z,98181.38
2018-03-12T05:27:49.798Z,98175.66
2018-03-12T05:30:17.289Z,98181.20
2018-03-12T05:32:44.737Z,98187.45
2018-03-12T05:35:12.537Z,98178.55
2018-03-12T05:37:39.988Z,98187.73
2018-03-12T05:40:07.451Z,98192.23
2018-03-12T05:42:34.919Z,98196.36
2018-03-12T05:45:02.378Z,98196.30
2018-03-12T05:47:30.288Z,98189.53
2018-03-12T05:49:57.741Z,98201.63
2018-03-12T05:52:25.209Z,98197.91
2018-03-12T05:54:52.685Z,98209.66
2018-03-12T05:57:20.149Z,98208.54
2018-03-12T05:59:47.674Z,98209.15
2018-03-12T06:02:15.165Z,98210.05
2018-03-12T06:04:42.618Z,98213.03
2018-03-12T06:07:10.090Z,98213.31
2018-03-12T06:09:37.541Z,98211.38
2018-03-12T06:12:05.289Z,98213.40
2018-03-12T06:14:32.729Z,98210.52
2018-03-12T06:17:00.190Z,98218.09
2018-03-12T06:19:27.662Z,98214.53
2018-03-12T06:21:55.130Z,98219.97
2018-03-12T06:24:22.746Z,98215.09
2018-03-12T06:26:50.193Z,98220.96
2018-03-12T06:29:17.641Z,98227.93
2018-03-12T06:31:45.127Z,98221.91
2018-03-12T06:34:12.573Z,98222.67
2018-03-12T06:36:40.289Z,98221.61
2018-03-12T06:39:07.734Z,98221.77
2018-03-12T06:41:35.219Z,98222.88
2018-03-12T06:44:02.709Z,98224.64
2018-03-12T06:46:30.162Z,98225.53
2018-03-12T06:48:57.857Z,98225.19
2018-03-12T06:51:25.321Z,98229.88
2018-03-12T06:53:52.765Z,98231.59
2018-03-12T06:56:20.307Z,98228.13
2018-03-12T06:58:47.785Z,98238.44
2018-03-12T07:01:15.494Z,98234.13
2018-03-12T07:03:42.950Z,98239.55
2018-03-12T07:06:10.430Z,98239.09
2018-03-12T07:08:37.903Z,98233.04
2018-03-12T07:11:05.362Z,98241.16
2018-03-12T07:13:32.953Z,98242.10
2018-03-12T07:16:00.405Z,98238.16
2018-03-12T07:18:27.853Z,98236.98
2018-03-12T07:20:55.326Z,98235.84
2018-03-12T07:23:22.774Z,98240.50
2018-03-12T07:25:50.511Z,98247.01
2018-03-12T07:28:17.957Z,98248.83
2018-03-12T07:30:45.424Z,98249.77
2018-03-12T07:33:12.894Z,98256.42
2018-03-12T07:35:40.362Z,98251.17
2018-03-12T07:38:07.961Z,98255.56
2018-03-12T07:40:35.440Z,98260.23
2018-03-12T07:43:02.890Z,98267.83
2018-03-12T07:45:30.359Z,98259.03
2018-03-12T07:47:57.805Z,98264.52
2018-03-12T07:50:25.505Z,98262.06
2018-03-12T07:52:52.961Z,98265.63
2018-03-12T07:55:20.410Z,98267.98
2018-03-12T07:57:47.905Z,98262.99
2018-03-12T08:00:15.388Z,98268.84
2018-03-12T08:02:43.117Z,98270.27
2018-03-12T08:05:10.564Z,98274.73
2018-03-12T08:07:38.021Z,98275.04
2018-03-12T08:10:05.498Z,98268.89
2018-03-12T08:12:33.024Z,98270.27
2018-03-12T08:15:00.516Z,98270.30
2018-03-12T08:17:27.982Z,98274.34
2018-03-12T08:19:55.438Z,98281.05
2018-03-12T08:22:22.915Z,98283.63
2018-03-12T08:24:50.365Z,98292.38
2018-03-12T08:27:17.837Z,98295.33
2018-03-12T08:29:45.315Z,98303.61
2018-03-12T08:32:12.761Z,98298.31
2018-03-12T08:34:40.229Z,98302.92
2018-03-12T08:37:07.690Z,98301.45
2018-03-12T08:39:35.416Z,98309.48
2018-03-12T08:42:02.861Z,98308.80
2018-03-12T08:44:30.321Z,98305.88
2018-03-12T08:46:57.785Z,98305.29
2018-03-12T08:49:25.237Z,98313.41
2018-03-12T08:51:52.717Z,98309.81
2018-03-12T08:54:20.165Z,98311.39
2018-03-12T08:56:47.613Z,98321.58
2018-03-12T08:59:15.082Z,98316.94
2018-03-12T09:01:42.529Z,98315.44
2018-03-12T09:04:10.422Z,98312.84
2018-03-12T09:06:37.885Z,98310.25
2018-03-12T09:09:05.341Z,98310.50
2018-03-12T09:11:32.818Z,98314.77
2018-03-12T09:14:00.265Z,98309.27
2018-03-12T09:16:28.088Z,98311.47
2018-03-12T09:18:55.550Z,98320.25
2018-03-12T09:21:23.209Z,98313.48
2018-03-12T09:23:50.689Z,98306.33
2018-03-12T09:26:18.137Z,98308.89
2018-03-12T09:28:45.744Z,98307.32
2018-03-12T09:31:13.189Z,98314.84
2018-03-12T09:33:40.639Z,98304.66
2018-03-12T09:36:08.162Z,98308.41
2018-03-12T09:38:35.609Z,98310.00
2018-03-12T09:41:03.441Z,98314.33
2018-03-12T09:43:30.893Z,98314.36
2018-03-12T09:45:58.341Z,98317.68
2018-03-12T09:48:25.809Z,98318.80
2018-03-12T09:50:53.290Z,98317.58
2018-03-12T09:53:20.783Z,98323.13
2018-03-12T09:55:48.234Z,98329.93
2018-03-12T09:58:15.821Z,98326.91
2018-03-12T10:00:43.286Z,98330.85
2018-03-12T10:03:10.735Z,98332.02
2018-03-12T10:05:38.398Z,98340.41
2018-03-12T10:08:05.846Z,98331.55
2018-03-12T10:10:33.895Z,98344.27
2018-03-12T10:13:01.378Z,98346.42
2018-03-12T10:15:28.818Z,98350.80
2018-03-12T10:17:56.282Z,98348.00
2018-03-12T10:20:23.721Z,98352.19
2018-03-12T10:22:51.185Z,98347.81
2018-03-12T10:25:18.665Z,98352.88
2018-03-12T10:27:46.101Z,98358.00
2018-03-12T10:30:13.701Z,98354.69
2018-03-12T10:32:41.142Z,98360.83
2018-03-12T10:35:08.616Z,98361.38
2018-03-12T10:37:36.052Z,98366.33
2018-03-12T10:40:03.489Z,98360.58
2018-03-12T10:42:31.153Z,98364.66
2018-03-12T10:44:58.589Z,98369.54
2018-03-12T10:47:26.043Z,98370.14
2018-03-12T10:49:53.501Z,98369.69
2018-03-12T10:52:20.943Z,98371.51
2018-03-12T10:54:48.613Z,98366.96
2018-03-12T10:57:16.058Z,98374.59
2018-03-12T10:59:43.503Z,98370.77
2018-03-12T11:02:10.969Z,98368.88
2018-03-12T11:04:38.413Z,98369.11
2018-03-12T11:07:14.435Z,98369.12
2018-03-12T11:09:41.870Z,98364.84
2018-03-12T11:12:09.606Z,98362.16
2018-03-12T11:14:37.056Z,98367.93
2018-03-12T11:17:04.506Z,98367.22
2018-03-12T11:19:32.014Z,98360.17
2018-03-12T11:21:59.452Z,98360.48
2018-03-12T11:24:27.045Z,98365.86
2018-03-12T11:26:54.484Z,98366.57
2018-03-12T11:29:21.925Z,98367.53
2018-03-12T11:31:49.384Z,98365.80
2018-03-12T11:34:16.827Z,98367.47
2018-03-12T11:36:44.327Z,98367.42
2018-03-12T11:39:11.781Z,98364.91
2018-03-12T11:41:39.221Z,98356.38
2018-03-12T11:44:06.690Z,98359.73
2018-03-12T11:46:34.141Z,98358.62
2018-03-12T11:49:01.751Z,98362.74
2018-03-12T11:51:29.215Z,98363.09
2018-03-12T11:53:56.657Z,98359.04
2018-03-12T11:56:24.123Z,98367.09
2018-03-12T11:58:51.563Z,98366.30
2018-03-12T12:01:19.193Z,98361.70
2018-03-12T12:03:46.642Z,98369.35
2018-03-12T12:06:14.086Z,98366.54
2018-03-12T12:08:41.546Z,98366.52
2018-03-12T12:11:09.005Z,98362.33
2018-03-12T12:13:36.827Z,98365.58
2018-03-12T12:16:04.274Z,98367.59
2018-03-12T12:18:31.709Z,98369.02
2018-03-12T12:20:59.238Z,98363.87
2018-03-12T12:23:26.642Z,98377.67
2018-03-12T12:25:54.325Z,98360.34
2018-03-12T12:28:21.766Z,98356.77
2018-03-12T12:30:49.229Z,98357.58
2018-03-12T12:33:16.691Z,98345.28
2018-03-12T12:35:44.137Z,98350.23
2018-03-12T12:38:11.606Z,98362.55
2018-03-12T12:40:39.057Z,98359.77
2018-03-12T12:43:06.505Z,98354.97
2018-03-12T12:45:33.968Z,98351.42
2018-03-12T12:48:01.405Z,98343.11
2018-03-12T12:50:29.366Z,98337.05
2018-03-12T12:52:56.827Z,98344.94
2018-03-12T12:55:24.266Z,98345.48
2018-03-12T12:57:51.752Z,98337.02
2018-03-12T13:00:19.193Z,98338.84
2018-03-12T13:02:46.681Z,98341.37
2018-03-12T13:05:14.117Z,98342.39
2018-03-12T13:07:41.585Z,98344.52
2018-03-12T13:10:09.056Z,98343.09
2018-03-12T13:12:36.505Z,98336.64
2018-03-12T13:15:03.982Z,98342.88
2018-03-12T13:17:31.421Z,98348.55
2018-03-12T13:19:58.868Z,98346.02
2018-03-12T13:22:26.326Z,98353.76
2018-03-12T13:24:53.998Z,98350.14
2018-03-12T13:27:21.693Z,98351.35
2018-03-12T13:29:49.141Z,98342.02
2018-03-12T13:32:16.581Z,98344.09
2018-03-12T13:34:44.079Z,98344.50
2018-03-12T13:37:11.506Z,98345.90
2018-03-12T13:39:39.312Z,98351.48
2018-03-12T13:42:06.750Z,98347.66
2018-03-12T13:44:34.189Z,98338.66
2018-03-12T13:47:01.649Z,98348.45
2018-03-12T13:49:29.109Z,98354.53
2018-03-12T13:51:56.818Z,98347.92
2018-03-12T13:54:24.257Z,98348.22
2018-03-12T13:56:51.705Z,98354.41
2018-03-12T13:59:19.201Z,98352.72
2018-03-12T14:01:46.641Z,98348.34
2018-03-12T14:04:14.517Z,98351.61
2018-03-12T14:06:41.953Z,98352.24
2018-03-12T14:09:10.287Z,98352.64
2018-03-12T14:11:37.757Z,98351.30
2018-03-12T14:14:05.221Z,98344.31
2018-03-12T14:16:32.690Z,98338.33
2018-03-12T14:19:00.144Z,98351.03
2018-03-12T14:21:27.610Z,98344.95
2018-03-12T14:23:55.077Z,98349.44
2018-03-12T14:26:22.516Z,98355.26
2018-03-12T14:28:50.261Z,98352.50
2018-03-12T14:31:17.721Z,98355.14
2018-03-12T14:33:45.157Z,98356.84
2018-03-12T14:36:12.629Z,98370.48
2018-03-12T14:38:40.193Z,98377.93
2018-03-12T14:41:07.790Z,98365.36
2018-03-12T14:43:35.275Z,98364.56
2018-03-12T14:46:02.717Z,98364.30
2018-03-12T14:48:30.178Z,98360.73
2018-03-12T14:50:57.618Z,98360.17
2018-03-12T14:53:25.447Z,98349.78
2018-03-12T14:55:52.882Z,98354.98
2018-03-12T14:58:20.330Z,98352.95
2018-03-12T15:00:47.793Z,98341.09
2018-03-12T15:03:15.229Z,98347.56
2018-03-12T15:05:42.717Z,98347.44
2018-03-12T15:08:10.178Z,98346.37
2018-03-12T15:10:37.622Z,98352.19
2018-03-12T15:13:05.081Z,98361.75
2018-03-12T15:15:32.521Z,98363.41
2018-03-12T15:18:00.150Z,98367.84
2018-03-12T15:20:27.602Z,98370.73
2018-03-12T15:22:55.039Z,98382.33
2018-03-12T15:25:22.501Z,98384.74
2018-03-12T15:27:49.961Z,98403.42
2018-03-12T15:30:17.622Z,98408.19
2018-03-12T15:32:45.061Z,98409.73
2018-03-12T15:35:12.502Z,98405.52
2018-03-12T15:37:39.966Z,98412.27
2018-03-12T15:40:07.417Z,98409.17
2018-03-12T15:42:34.905Z,98408.42
2018-03-12T15:45:02.353Z,98405.60
2018-03-12T15:47:29.837Z,98410.34
2018-03-12T15:49:57.269Z,98414.13
2018-03-12T15:52:24.705Z,98409.72
2018-03-12T15:54:52.310Z,98408.28
2018-03-12T15:57:19.749Z,98414.77
2018-03-12T15:59:47.189Z,98411.62
2018-03-12T16:02:14.648Z,98413.34
2018-03-12T16:04:42.128Z,98420.12
2018-03-12T16:07:09.838Z,98419.20
2018-03-12T16:09:37.277Z,98424.83
2018-03-12T16:12:04.717Z,98422.48
2018-03-12T16:14:32.181Z,98424.14
2018-03-12T16:16:59.637Z,98427.39
2018-03-12T16:19:27.308Z,98424.41
2018-03-12T16:21:54.753Z,98426.16
2018-03-12T16:24:22.196Z,98417.86
2018-03-12T16:26:49.679Z,98420.78
2018-03-12T16:29:17.159Z,98419.73
2018-03-12T16:31:44.632Z,98420.12
2018-03-12T16:34:12.089Z,98418.59
2018-03-12T16:36:39.538Z,98423.55
2018-03-12T16:39:07.010Z,98428.67
2018-03-12T16:41:34.450Z,98431.15
2018-03-12T16:44:02.090Z,98421.69
2018-03-12T16:46:29.541Z,98423.05
2018-03-12T16:48:56.994Z,98434.59
2018-03-12T16:51:24.461Z,98432.05
2018-03-12T16:53:51.909Z,98436.13
2018-03-12T16:56:19.547Z,98444.50
2018-03-12T16:58:46.986Z,98434.54
2018-03-12T17:01:14.426Z,98437.27
2018-03-12T17:03:41.897Z,98444.83
2018-03-12T17:06:09.336Z,98448.23
2018-03-12T17:08:36.997Z,98450.16
2018-03-12T17:11:04.461Z,98452.52
2018-03-12T17:13:31.920Z,98458.38
2018-03-12T17:15:59.389Z,98463.81
2018-03-12T17:18:26.837Z,98472.92
2018-03-12T17:20:54.552Z,98477.23
2018-03-12T17:23:21.989Z,98478.63
2018-03-12T17:25:49.438Z,98492.32
2018-03-12T17:28:16.933Z,98492.22
2018-03-12T17:30:44.370Z,98494.76
2018-03-12T17:33:11.962Z,98498.34
2018-03-12T17:35:39.416Z,98496.33
2018-03-12T17:38:06.857Z,98502.84
2018-03-12T17:40:34.418Z,98506.22
2018-03-12T17:43:01.863Z,98518.95
2018-03-12T17:45:29.338Z,98518.53
2018-03-12T17:47:56.785Z,98516.07
2018-03-12T17:50:24.446Z,98524.66
2018-03-12T17:52:52.552Z,98516.56
2018-03-12T17:55:21.662Z,98516.06
2018-03-12T17:57:49.203Z,98521.38
2018-03-12T18:00:16.651Z,98528.33
2018-03-12T18:02:44.119Z,98531.91
2018-03-12T18:05:11.593Z,98536.34
2018-03-12T18:07:39.071Z,98534.04
2018-03-12T18:10:06.629Z,98531.34
2018-03-12T18:12:34.134Z,98532.09
2018-03-12T18:15:01.605Z,98528.61
2018-03-12T18:17:29.122Z,98533.19
2018-03-12T18:19:56.534Z,98531.34
2018-03-12T18:22:24.013Z,98534.57
2018-03-12T18:24:51.453Z,98538.11
2018-03-12T18:27:18.903Z,98538.00
2018-03-12T18:29:46.365Z,98543.83
2018-03-12T18:34:50.345Z,98550.59
2018-03-12T18:37:17.805Z,98548.72
2018-03-12T18:39:45.249Z,98553.02
2018-03-12T18:42:12.782Z,98552.69
2018-03-12T18:44:40.271Z,98550.57
2018-03-12T18:47:07.767Z,98551.28
2018-03-12T18:49:35.218Z,98547.81
2018-03-12T18:52:02.674Z,98550.38
2018-03-12T18:54:30.154Z,98550.23
2018-03-12T18:56:57.611Z,98557.12
2018-03-12T18:59:25.097Z,98553.09
2018-03-12T19:01:52.542Z,98556.53
2018-03-12T19:04:19.990Z,98562.27
2018-03-12T19:06:47.502Z,98559.38
2018-03-12T19:09:14.953Z,98560.19
2018-03-12T19:11:42.540Z,98552.34
2018-03-12T19:14:10.085Z,98553.96
2018-03-12T19:16:37.538Z,98555.17
2018-03-12T19:19:05.013Z,98555.22
2018-03-12T19:21:32.469Z,98556.26
2018-03-12T19:24:00.128Z,98567.90
2018-03-12T19:26:27.569Z,98569.72
2018-03-12T19:28:55.030Z,98575.59
2018-03-12T19:31:22.584Z,98579.08
2018-03-12T19:33:50.052Z,98586.91
2018-03-12T19:36:17.626Z,98587.78
2018-03-12T19:38:45.090Z,98596.26
2018-03-12T19:41:12.538Z,98596.06
2018-03-12T19:43:40.005Z,98602.02
2018-03-12T19:46:07.441Z,98599.09
2018-03-12T19:48:35.253Z,98602.20
2018-03-12T19:51:02.701Z,98601.82
2018-03-12T19:53:30.142Z,98613.98
2018-03-12T19:55:57.601Z,98611.26
2018-03-12T19:58:26.073Z,98621.45
2018-03-12T20:00:53.928Z,98622.16
2018-03-12T20:03:22.237Z,98625.27
2018-03-12T20:05:51.443Z,98626.17
2018-03-12T20:08:18.922Z,98632.70
2018-03-12T20:10:46.822Z,98640.43
2018-03-12T20:13:17.350Z,98643.14
2018-03-12T20:15:44.805Z,98651.96
2018-03-12T20:18:13.977Z,98648.64
2018-03-12T20:20:41.413Z,98657.02
2018-03-12T20:23:09.226Z,98660.56
2018-03-12T20:25:36.679Z,98658.08
2018-03-12T20:28:04.200Z,98663.33
2018-03-12T20:30:32.233Z,98661.85
2018-03-12T20:32:59.677Z,98673.07
2018-03-12T20:35:27.146Z,98661.45
2018-03-12T20:37:55.470Z,98669.04
2018-03-12T20:40:22.918Z,98669.85
2018-03-12T20:42:50.436Z,98670.49
2018-03-12T20:45:17.874Z,98676.92
2018-03-12T20:47:45.313Z,98679.14
2018-03-12T20:50:13.052Z,98684.39
2018-03-12T20:52:40.555Z,98684.86
2018-03-12T20:55:07.965Z,98688.63
2018-03-12T20:57:35.650Z,98684.29
2018-03-12T21:00:03.101Z,98691.22
2018-03-12T21:02:31.321Z,98688.45
2018-03-12T21:04:58.781Z,98688.88
2018-03-12T21:07:26.230Z,98696.34
2018-03-12T21:09:53.729Z,98696.00
2018-03-12T21:12:21.169Z,98702.75
2018-03-12T21:14:48.611Z,98707.77
2018-03-12T21:17:16.066Z,98702.88
2018-03-12T21:19:43.909Z,98706.58
2018-03-12T21:22:11.387Z,98705.72
2018-03-12T21:24:38.831Z,98709.59
2018-03-12T21:27:06.274Z,98708.88
2018-03-12T21:29:33.764Z,98702.97
2018-03-12T21:32:01.217Z,98706.91
2018-03-12T21:34:29.014Z,98706.67
2018-03-12T21:36:56.471Z,98710.81
2018-03-12T21:39:24.012Z,98705.00
2018-03-12T21:41:51.474Z,98718.59
2018-03-12T21:44:18.936Z,98722.48
2018-03-12T21:46:46.404Z,98723.64
2018-03-12T21:49:13.842Z,98722.91
2018-03-12T21:51:41.301Z,98723.95
2018-03-12T21:54:08.757Z,98722.11
2018-03-12T21:56:36.198Z,98725.22
2018-03-12T21:59:03.840Z,98731.95
2018-03-12T22:01:31.298Z,98735.13
2018-03-12T22:03:58.757Z,98732.51
2018-03-12T22:06:26.221Z,98731.70
2018-03-12T22:08:53.669Z,98732.80
2018-03-12T22:11:21.265Z,98735.63
2018-03-12T22:13:48.721Z,98733.75
2018-03-12T22:16:16.163Z,98733.75
2018-03-12T22:18:43.642Z,98740.22
2018-03-12T22:21:11.082Z,98737.14
2018-03-12T22:23:38.821Z,98741.11
2018-03-12T22:26:06.264Z,98734.56
2018-03-12T22:28:33.725Z,98739.57
2018-03-12T22:31:01.198Z,98745.51
2018-03-12T22:33:28.633Z,98745.02
2018-03-12T22:35:56.264Z,98750.49
2018-03-12T22:38:23.710Z,98743.91
2018-03-12T22:40:51.162Z,98744.11
2018-03-12T22:43:18.624Z,98746.30
2018-03-12T22:45:46.074Z,98740.81
2018-03-12T22:48:13.921Z,98741.84
2018-03-12T22:50:41.710Z,98748.83
2018-03-12T22:53:09.199Z,98752.42
2018-03-12T22:55:36.661Z,98749.39
2018-03-12T22:58:04.121Z,98751.70
2018-03-12T23:00:31.785Z,98747.88
2018-03-12T23:02:59.240Z,98755.89
2018-03-12T23:05:26.676Z,98757.98
2018-03-12T23:07:54.134Z,98750.92
2018-03-12T23:10:21.573Z,98751.92
2018-03-12T23:12:49.252Z,98757.06
2018-03-12T23:15:16.690Z,98761.86
2018-03-12T23:17:44.138Z,98760.91
2018-03-12T23:20:11.605Z,98761.68
2018-03-12T23:22:39.046Z,98769.88
2018-03-12T23:25:06.543Z,98767.38
2018-03-12T23:27:33.984Z,98775.13
2018-03-12T23:30:01.433Z,98777.23
2018-03-12T23:32:28.903Z,98779.80
2018-03-12T23:34:56.337Z,98774.23
2018-03-12T23:37:23.830Z,98771.41
2018-03-12T23:39:51.270Z,98772.22
2018-03-12T23:42:18.709Z,98775.95
2018-03-12T23:44:46.171Z,98773.64
2018-03-12T23:47:13.629Z,98776.92
2018-03-12T23:49:41.093Z,98781.67
2018-03-12T23:52:08.534Z,98787.08
2018-03-12T23:54:39.762Z,98786.47
2018-03-12T23:57:07.225Z,98786.34
